sensor_id;sensor_type;location;lat;lon;timestamp;P1;durP1;ratioP1;P2;durP2;ratioP2
63434;SDS011;68814;50.872;5.306;2023-09-07T00:00:48;9.80;;;5.85;;
63434;SDS011;68814;50.872;5.306;2023-09-07T00:03:14;9.80;;;6.30;;
63434;SDS011;68814;50.872;5.306;2023-09-07T00:05:40;10.57;;;5.85;;
63434;SDS011;68814;50.872;5.306;2023-09-07T00:08:06;11.18;;;6.00;;
63434;SDS011;68814;50.872;5.306;2023-09-07T00:10:32;9.43;;;6.22;;
63434;SDS011;68814;50.872;5.306;2023-09-07T00:13:02;10.18;;;6.60;;
63434;SDS011;68814;50.872;5.306;2023-09-07T00:15:28;12.38;;;7.03;;
63434;SDS011;68814;50.872;5.306;2023-09-07T00:17:55;10.25;;;6.60;;
63434;SDS011;68814;50.872;5.306;2023-09-07T00:20:21;11.57;;;7.60;;
63434;SDS011;68814;50.872;5.306;2023-09-07T00:22:48;14.30;;;6.45;;
63434;SDS011;68814;50.872;5.306;2023-09-07T00:25:14;8.95;;;6.30;;
63434;SDS011;68814;50.872;5.306;2023-09-07T00:27:40;9.65;;;6.53;;
63434;SDS011;68814;50.872;5.306;2023-09-07T00:30:06;7.53;;;6.00;;
63434;SDS011;68814;50.872;5.306;2023-09-07T00:32:35;8.52;;;6.30;;
63434;SDS011;68814;50.872;5.306;2023-09-07T00:35:01;9.60;;;6.28;;
63434;SDS011;68814;50.872;5.306;2023-09-07T00:37:27;9.43;;;7.00;;
63434;SDS011;68814;50.872;5.306;2023-09-07T00:39:53;10.73;;;6.78;;
63434;SDS011;68814;50.872;5.306;2023-09-07T00:42:18;8.75;;;6.90;;
63434;SDS011;68814;50.872;5.306;2023-09-07T00:44:44;8.60;;;6.80;;
63434;SDS011;68814;50.872;5.306;2023-09-07T00:47:10;13.43;;;7.25;;
63434;SDS011;68814;50.872;5.306;2023-09-07T00:49:36;8.90;;;6.28;;
63434;SDS011;68814;50.872;5.306;2023-09-07T00:52:04;10.38;;;6.90;;
63434;SDS011;68814;50.872;5.306;2023-09-07T00:54:31;9.15;;;6.65;;
63434;SDS011;68814;50.872;5.306;2023-09-07T00:56:57;8.20;;;6.50;;
63434;SDS011;68814;50.872;5.306;2023-09-07T00:59:22;10.93;;;6.93;;
63434;SDS011;68814;50.872;5.306;2023-09-07T01:01:49;8.43;;;6.40;;
63434;SDS011;68814;50.872;5.306;2023-09-07T01:04:14;12.10;;;6.28;;
63434;SDS011;68814;50.872;5.306;2023-09-07T01:07:24;8.52;;;6.40;;
63434;SDS011;68814;50.872;5.306;2023-09-07T01:09:37;8.88;;;6.63;;
63434;SDS011;68814;50.872;5.306;2023-09-07T01:12:07;8.32;;;6.28;;
63434;SDS011;68814;50.872;5.306;2023-09-07T01:14:36;10.48;;;6.35;;
63434;SDS011;68814;50.872;5.306;2023-09-07T01:17:02;8.45;;;6.22;;
63434;SDS011;68814;50.872;5.306;2023-09-07T01:19:28;9.38;;;6.68;;
63434;SDS011;68814;50.872;5.306;2023-09-07T01:21:54;12.65;;;7.22;;
63434;SDS011;68814;50.872;5.306;2023-09-07T01:24:20;12.80;;;7.03;;
63434;SDS011;68814;50.872;5.306;2023-09-07T01:26:48;8.02;;;6.90;;
63434;SDS011;68814;50.872;5.306;2023-09-07T01:29:14;11.07;;;6.78;;
63434;SDS011;68814;50.872;5.306;2023-09-07T01:31:43;9.68;;;7.05;;
63434;SDS011;68814;50.872;5.306;2023-09-07T01:34:09;10.93;;;6.45;;
63434;SDS011;68814;50.872;5.306;2023-09-07T01:36:35;9.63;;;6.53;;
63434;SDS011;68814;50.872;5.306;2023-09-07T01:39:01;8.18;;;6.47;;
63434;SDS011;68814;50.872;5.306;2023-09-07T01:41:27;10.60;;;7.32;;
63434;SDS011;68814;50.872;5.306;2023-09-07T01:43:54;10.00;;;7.65;;
63434;SDS011;68814;50.872;5.306;2023-09-07T01:46:19;11.65;;;6.82;;
63434;SDS011;68814;50.872;5.306;2023-09-07T01:48:45;9.40;;;6.78;;
63434;SDS011;68814;50.872;5.306;2023-09-07T01:51:11;10.20;;;7.25;;
63434;SDS011;68814;50.872;5.306;2023-09-07T01:53:36;9.73;;;6.55;;
63434;SDS011;68814;50.872;5.306;2023-09-07T01:56:02;8.77;;;6.95;;
63434;SDS011;68814;50.872;5.306;2023-09-07T01:58:28;12.02;;;6.60;;
63434;SDS011;68814;50.872;5.306;2023-09-07T02:00:57;11.52;;;6.57;;
63434;SDS011;68814;50.872;5.306;2023-09-07T02:03:23;10.07;;;7.00;;
63434;SDS011;68814;50.872;5.306;2023-09-07T02:05:49;8.98;;;7.05;;
63434;SDS011;68814;50.872;5.306;2023-09-07T02:08:15;11.05;;;6.78;;
63434;SDS011;68814;50.872;5.306;2023-09-07T02:10:40;7.65;;;6.15;;
63434;SDS011;68814;50.872;5.306;2023-09-07T02:13:06;11.10;;;6.55;;
63434;SDS011;68814;50.872;5.306;2023-09-07T02:15:31;10.35;;;6.55;;
63434;SDS011;68814;50.872;5.306;2023-09-07T02:17:58;8.35;;;6.07;;
63434;SDS011;68814;50.872;5.306;2023-09-07T02:20:23;11.40;;;6.60;;
63434;SDS011;68814;50.872;5.306;2023-09-07T02:22:49;10.15;;;6.05;;
63434;SDS011;68814;50.872;5.306;2023-09-07T02:25:15;9.05;;;7.00;;
63434;SDS011;68814;50.872;5.306;2023-09-07T02:27:41;8.73;;;6.60;;
63434;SDS011;68814;50.872;5.306;2023-09-07T02:30:07;8.25;;;6.40;;
63434;SDS011;68814;50.872;5.306;2023-09-07T02:32:33;9.73;;;6.75;;
63434;SDS011;68814;50.872;5.306;2023-09-07T02:34:58;11.30;;;6.88;;
63434;SDS011;68814;50.872;5.306;2023-09-07T02:37:24;10.25;;;6.60;;
63434;SDS011;68814;50.872;5.306;2023-09-07T02:39:50;11.90;;;6.07;;
63434;SDS011;68814;50.872;5.306;2023-09-07T02:42:15;9.00;;;6.47;;
63434;SDS011;68814;50.872;5.306;2023-09-07T02:44:41;10.95;;;6.10;;
63434;SDS011;68814;50.872;5.306;2023-09-07T02:47:06;9.80;;;5.90;;
63434;SDS011;68814;50.872;5.306;2023-09-07T04:38:32;14.43;;;6.72;;
63434;SDS011;68814;50.872;5.306;2023-09-07T05:28:15;22.70;;;9.82;;
63434;SDS011;68814;50.872;5.306;2023-09-07T05:31:02;15.30;;;8.45;;
63434;SDS011;68814;50.872;5.306;2023-09-07T05:48:58;42.58;;;10.35;;
63434;SDS011;68814;50.872;5.306;2023-09-07T05:58:46;16.50;;;9.63;;
63434;SDS011;68814;50.872;5.306;2023-09-07T06:01:36;17.00;;;10.02;;
63434;SDS011;68814;50.872;5.306;2023-09-07T06:25:14;13.95;;;9.73;;
63434;SDS011;68814;50.872;5.306;2023-09-07T06:27:43;16.30;;;10.77;;
63434;SDS011;68814;50.872;5.306;2023-09-07T06:30:09;17.58;;;11.32;;
63434;SDS011;68814;50.872;5.306;2023-09-07T06:32:37;22.65;;;11.85;;
63434;SDS011;68814;50.872;5.306;2023-09-07T08:14:30;15.80;;;7.40;;
63434;SDS011;68814;50.872;5.306;2023-09-07T08:16:56;13.35;;;7.00;;
63434;SDS011;68814;50.872;5.306;2023-09-07T08:19:40;11.45;;;6.93;;
63434;SDS011;68814;50.872;5.306;2023-09-07T08:22:11;19.48;;;7.40;;
63434;SDS011;68814;50.872;5.306;2023-09-07T08:24:41;31.98;;;8.68;;
63434;SDS011;68814;50.872;5.306;2023-09-07T08:27:12;17.15;;;6.85;;
63434;SDS011;68814;50.872;5.306;2023-09-07T08:29:43;29.17;;;7.30;;
63434;SDS011;68814;50.872;5.306;2023-09-07T08:32:15;10.15;;;6.22;;
63434;SDS011;68814;50.872;5.306;2023-09-07T08:34:41;10.90;;;6.68;;
63434;SDS011;68814;50.872;5.306;2023-09-07T08:37:07;13.40;;;7.20;;
63434;SDS011;68814;50.872;5.306;2023-09-07T08:39:36;9.82;;;5.60;;
63434;SDS011;68814;50.872;5.306;2023-09-07T08:42:04;26.45;;;7.75;;
63434;SDS011;68814;50.872;5.306;2023-09-07T08:44:30;11.65;;;6.55;;
63434;SDS011;68814;50.872;5.306;2023-09-07T08:47:01;9.30;;;6.07;;
63434;SDS011;68814;50.872;5.306;2023-09-07T08:49:30;11.45;;;6.30;;
63434;SDS011;68814;50.872;5.306;2023-09-07T08:51:58;14.07;;;7.00;;
63434;SDS011;68814;50.872;5.306;2023-09-07T08:54:25;12.35;;;5.75;;
63434;SDS011;68814;50.872;5.306;2023-09-07T08:56:52;9.25;;;5.40;;
63434;SDS011;68814;50.872;5.306;2023-09-07T08:59:18;8.93;;;5.63;;
63434;SDS011;68814;50.872;5.306;2023-09-07T09:01:46;7.28;;;4.97;;
63434;SDS011;68814;50.872;5.306;2023-09-07T09:04:11;9.20;;;4.82;;
63434;SDS011;68814;50.872;5.306;2023-09-07T09:06:38;7.93;;;4.72;;
63434;SDS011;68814;50.872;5.306;2023-09-07T09:09:04;8.35;;;4.10;;
63434;SDS011;68814;50.872;5.306;2023-09-07T09:11:32;8.80;;;4.63;;
63434;SDS011;68814;50.872;5.306;2023-09-07T09:13:57;4.72;;;4.18;;
63434;SDS011;68814;50.872;5.306;2023-09-07T09:16:23;8.32;;;4.28;;
63434;SDS011;68814;50.872;5.306;2023-09-07T09:22:16;8.38;;;4.43;;
63434;SDS011;68814;50.872;5.306;2023-09-07T09:24:42;6.13;;;3.92;;
63434;SDS011;68814;50.872;5.306;2023-09-07T09:27:08;8.40;;;4.55;;
63434;SDS011;68814;50.872;5.306;2023-09-07T09:29:34;13.02;;;3.95;;
63434;SDS011;68814;50.872;5.306;2023-09-07T09:32:03;10.05;;;4.28;;
63434;SDS011;68814;50.872;5.306;2023-09-07T09:34:37;5.15;;;3.75;;
63434;SDS011;68814;50.872;5.306;2023-09-07T09:37:03;8.87;;;3.83;;
63434;SDS011;68814;50.872;5.306;2023-09-07T09:39:39;11.57;;;3.72;;
63434;SDS011;68814;50.872;5.306;2023-09-07T09:42:06;5.30;;;3.60;;
63434;SDS011;68814;50.872;5.306;2023-09-07T09:44:33;6.47;;;3.78;;
63434;SDS011;68814;50.872;5.306;2023-09-07T09:47:08;7.53;;;3.63;;
63434;SDS011;68814;50.872;5.306;2023-09-07T09:49:35;8.82;;;3.50;;
63434;SDS011;68814;50.872;5.306;2023-09-07T10:29:12;7.03;;;3.03;;
63434;SDS011;68814;50.872;5.306;2023-09-07T10:31:38;4.70;;;2.60;;
63434;SDS011;68814;50.872;5.306;2023-09-07T10:34:10;4.93;;;3.08;;
63434;SDS011;68814;50.872;5.306;2023-09-07T10:39:53;5.60;;;2.88;;
63434;SDS011;68814;50.872;5.306;2023-09-07T10:42:23;4.10;;;2.55;;
63434;SDS011;68814;50.872;5.306;2023-09-07T10:48:37;5.80;;;3.15;;
63434;SDS011;68814;50.872;5.306;2023-09-07T10:51:06;3.83;;;2.40;;
63434;SDS011;68814;50.872;5.306;2023-09-07T10:53:34;6.68;;;3.58;;
63434;SDS011;68814;50.872;5.306;2023-09-07T10:56:07;3.38;;;2.63;;
63434;SDS011;68814;50.872;5.306;2023-09-07T10:58:34;5.47;;;2.67;;
63434;SDS011;68814;50.872;5.306;2023-09-07T11:01:16;6.13;;;2.63;;
63434;SDS011;68814;50.872;5.306;2023-09-07T11:03:48;5.18;;;2.90;;
63434;SDS011;68814;50.872;5.306;2023-09-07T11:06:21;5.70;;;2.65;;
63434;SDS011;68814;50.872;5.306;2023-09-07T11:09:00;10.95;;;2.88;;
63434;SDS011;68814;50.872;5.306;2023-09-07T11:11:37;5.82;;;2.50;;
63434;SDS011;68814;50.872;5.306;2023-09-07T11:14:10;4.80;;;2.47;;
63434;SDS011;68814;50.872;5.306;2023-09-07T11:16:40;3.00;;;2.40;;
63434;SDS011;68814;50.872;5.306;2023-09-07T11:19:10;5.78;;;2.30;;
63434;SDS011;68814;50.872;5.306;2023-09-07T11:21:47;4.78;;;2.33;;
63434;SDS011;68814;50.872;5.306;2023-09-07T11:24:16;4.15;;;2.13;;
63434;SDS011;68814;50.872;5.306;2023-09-07T11:29:18;3.75;;;2.28;;
63434;SDS011;68814;50.872;5.306;2023-09-07T11:31:48;3.15;;;2.50;;
63434;SDS011;68814;50.872;5.306;2023-09-07T11:34:16;9.10;;;3.75;;
63434;SDS011;68814;50.872;5.306;2023-09-07T11:36:42;5.45;;;2.40;;
63434;SDS011;68814;50.872;5.306;2023-09-07T11:39:14;3.00;;;2.20;;
63434;SDS011;68814;50.872;5.306;2023-09-07T11:41:43;3.30;;;2.28;;
63434;SDS011;68814;50.872;5.306;2023-09-07T11:44:09;5.40;;;2.22;;
63434;SDS011;68814;50.872;5.306;2023-09-07T11:46:37;15.30;;;4.43;;
63434;SDS011;68814;50.872;5.306;2023-09-07T11:49:04;5.15;;;2.50;;
63434;SDS011;68814;50.872;5.306;2023-09-07T11:51:36;3.05;;;2.00;;
63434;SDS011;68814;50.872;5.306;2023-09-07T11:57:04;6.20;;;2.30;;
63434;SDS011;68814;50.872;5.306;2023-09-07T11:59:59;5.80;;;2.67;;
63434;SDS011;68814;50.872;5.306;2023-09-07T12:02:35;5.78;;;2.42;;
63434;SDS011;68814;50.872;5.306;2023-09-07T12:08:41;4.20;;;2.38;;
63434;SDS011;68814;50.872;5.306;2023-09-07T12:11:08;3.35;;;2.20;;
63434;SDS011;68814;50.872;5.306;2023-09-07T12:13:37;3.25;;;2.05;;
63434;SDS011;68814;50.872;5.306;2023-09-07T12:16:14;3.20;;;2.45;;
63434;SDS011;68814;50.872;5.306;2023-09-07T12:18:40;4.35;;;2.00;;
63434;SDS011;68814;50.872;5.306;2023-09-07T12:21:06;3.13;;;2.00;;
63434;SDS011;68814;50.872;5.306;2023-09-07T12:23:37;8.02;;;2.63;;
63434;SDS011;68814;50.872;5.306;2023-09-07T12:26:02;14.35;;;3.97;;
63434;SDS011;68814;50.872;5.306;2023-09-07T12:28:31;4.30;;;2.08;;
63434;SDS011;68814;50.872;5.306;2023-09-07T12:30:57;3.33;;;2.10;;
63434;SDS011;68814;50.872;5.306;2023-09-07T12:33:23;12.82;;;2.60;;
63434;SDS011;68814;50.872;5.306;2023-09-07T12:35:55;13.57;;;2.70;;
63434;SDS011;68814;50.872;5.306;2023-09-07T12:38:21;2.35;;;2.10;;
63434;SDS011;68814;50.872;5.306;2023-09-07T12:40:52;6.40;;;2.78;;
63434;SDS011;68814;50.872;5.306;2023-09-07T12:43:18;19.27;;;3.92;;
63434;SDS011;68814;50.872;5.306;2023-09-07T12:45:44;6.70;;;2.10;;
63434;SDS011;68814;50.872;5.306;2023-09-07T12:48:11;4.82;;;2.50;;
63434;SDS011;68814;50.872;5.306;2023-09-07T12:50:39;6.25;;;2.40;;
63434;SDS011;68814;50.872;5.306;2023-09-07T12:53:05;2.45;;;2.08;;
63434;SDS011;68814;50.872;5.306;2023-09-07T12:55:31;3.83;;;2.10;;
63434;SDS011;68814;50.872;5.306;2023-09-07T12:57:58;2.38;;;2.17;;
63434;SDS011;68814;50.872;5.306;2023-09-07T13:00:25;3.47;;;1.98;;
63434;SDS011;68814;50.872;5.306;2023-09-07T13:02:51;4.13;;;1.85;;
63434;SDS011;68814;50.872;5.306;2023-09-07T13:05:18;6.53;;;2.50;;
63434;SDS011;68814;50.872;5.306;2023-09-07T13:07:44;6.68;;;2.42;;
63434;SDS011;68814;50.872;5.306;2023-09-07T13:10:10;2.78;;;2.20;;
63434;SDS011;68814;50.872;5.306;2023-09-07T13:12:39;4.63;;;2.35;;
63434;SDS011;68814;50.872;5.306;2023-09-07T13:15:06;5.28;;;2.40;;
63434;SDS011;68814;50.872;5.306;2023-09-07T13:17:32;2.72;;;2.08;;
63434;SDS011;68814;50.872;5.306;2023-09-07T13:20:00;3.20;;;2.20;;
63434;SDS011;68814;50.872;5.306;2023-09-07T15:51:19;3.30;;;2.03;;
63434;SDS011;68814;50.872;5.306;2023-09-07T16:08:10;6.95;;;2.17;;
63434;SDS011;68814;50.872;5.306;2023-09-07T16:20:48;2.13;;;1.85;;
63434;SDS011;68814;50.872;5.306;2023-09-07T16:31:17;8.57;;;1.90;;
63434;SDS011;68814;50.872;5.306;2023-09-07T17:46:41;4.18;;;3.05;;
63434;SDS011;68814;50.872;5.306;2023-09-07T17:49:12;6.65;;;2.88;;
63434;SDS011;68814;50.872;5.306;2023-09-07T17:51:46;6.65;;;3.22;;
63434;SDS011;68814;50.872;5.306;2023-09-07T17:54:28;6.93;;;3.15;;
63434;SDS011;68814;50.872;5.306;2023-09-07T17:57:28;7.03;;;3.30;;
63434;SDS011;68814;50.872;5.306;2023-09-07T18:00:03;4.97;;;3.22;;
63434;SDS011;68814;50.872;5.306;2023-09-07T18:02:57;6.90;;;3.15;;
63434;SDS011;68814;50.872;5.306;2023-09-07T18:05:42;4.95;;;3.03;;
63434;SDS011;68814;50.872;5.306;2023-09-07T18:08:42;6.50;;;3.30;;
63434;SDS011;68814;50.872;5.306;2023-09-07T18:11:28;8.60;;;3.80;;
63434;SDS011;68814;50.872;5.306;2023-09-07T18:14:12;3.55;;;3.25;;
63434;SDS011;68814;50.872;5.306;2023-09-07T18:16:43;5.78;;;3.75;;
63434;SDS011;68814;50.872;5.306;2023-09-07T18:19:10;5.55;;;3.88;;
63434;SDS011;68814;50.872;5.306;2023-09-07T18:21:36;6.85;;;3.45;;
63434;SDS011;68814;50.872;5.306;2023-09-07T18:24:08;6.25;;;3.70;;
63434;SDS011;68814;50.872;5.306;2023-09-07T18:26:48;4.55;;;3.53;;
63434;SDS011;68814;50.872;5.306;2023-09-07T18:29:28;6.43;;;3.40;;
63434;SDS011;68814;50.872;5.306;2023-09-07T18:31:53;7.05;;;3.95;;
63434;SDS011;68814;50.872;5.306;2023-09-07T18:34:28;4.80;;;3.50;;
63434;SDS011;68814;50.872;5.306;2023-09-07T18:36:54;4.68;;;3.78;;
63434;SDS011;68814;50.872;5.306;2023-09-07T18:39:23;6.30;;;3.55;;
63434;SDS011;68814;50.872;5.306;2023-09-07T18:41:51;4.93;;;3.90;;
63434;SDS011;68814;50.872;5.306;2023-09-07T18:44:17;7.97;;;4.15;;
63434;SDS011;68814;50.872;5.306;2023-09-07T18:46:55;7.28;;;3.78;;
63434;SDS011;68814;50.872;5.306;2023-09-07T18:49:26;10.15;;;3.95;;
63434;SDS011;68814;50.872;5.306;2023-09-07T18:51:51;7.32;;;4.60;;
63434;SDS011;68814;50.872;5.306;2023-09-07T18:54:17;10.50;;;3.88;;
63434;SDS011;68814;50.872;5.306;2023-09-07T18:56:53;6.38;;;3.85;;
63434;SDS011;68814;50.872;5.306;2023-09-07T18:59:29;8.57;;;4.55;;
63434;SDS011;68814;50.872;5.306;2023-09-07T19:04:37;7.65;;;4.30;;
63434;SDS011;68814;50.872;5.306;2023-09-07T19:07:03;9.02;;;4.35;;
63434;SDS011;68814;50.872;5.306;2023-09-07T19:09:34;6.20;;;3.78;;
63434;SDS011;68814;50.872;5.306;2023-09-07T19:12:05;13.93;;;4.97;;
63434;SDS011;68814;50.872;5.306;2023-09-07T19:14:38;10.50;;;4.47;;
63434;SDS011;68814;50.872;5.306;2023-09-07T19:17:06;6.22;;;4.63;;
63434;SDS011;68814;50.872;5.306;2023-09-07T19:19:35;9.50;;;4.53;;
63434;SDS011;68814;50.872;5.306;2023-09-07T19:22:09;5.75;;;4.75;;
63434;SDS011;68814;50.872;5.306;2023-09-07T19:24:38;6.55;;;4.60;;
63434;SDS011;68814;50.872;5.306;2023-09-07T19:27:04;7.07;;;5.03;;
63434;SDS011;68814;50.872;5.306;2023-09-07T19:29:32;7.22;;;4.63;;
63434;SDS011;68814;50.872;5.306;2023-09-07T19:31:58;7.20;;;4.05;;
63434;SDS011;68814;50.872;5.306;2023-09-07T19:34:24;9.73;;;5.13;;
63434;SDS011;68814;50.872;5.306;2023-09-07T19:36:49;11.07;;;5.00;;
63434;SDS011;68814;50.872;5.306;2023-09-07T19:39:18;7.18;;;4.82;;
63434;SDS011;68814;50.872;5.306;2023-09-07T19:41:43;7.07;;;4.72;;
63434;SDS011;68814;50.872;5.306;2023-09-07T19:44:09;8.10;;;5.00;;
63434;SDS011;68814;50.872;5.306;2023-09-07T19:46:35;6.78;;;5.47;;
63434;SDS011;68814;50.872;5.306;2023-09-07T19:49:00;9.23;;;5.90;;
63434;SDS011;68814;50.872;5.306;2023-09-07T19:51:26;9.50;;;5.63;;
63434;SDS011;68814;50.872;5.306;2023-09-07T19:53:52;9.43;;;5.45;;
63434;SDS011;68814;50.872;5.306;2023-09-07T19:56:20;10.40;;;5.65;;
63434;SDS011;68814;50.872;5.306;2023-09-07T19:58:49;10.02;;;5.60;;
63434;SDS011;68814;50.872;5.306;2023-09-07T20:01:17;8.50;;;5.50;;
63434;SDS011;68814;50.872;5.306;2023-09-07T20:03:44;8.02;;;5.05;;
63434;SDS011;68814;50.872;5.306;2023-09-07T20:06:11;8.77;;;5.38;;
63434;SDS011;68814;50.872;5.306;2023-09-07T20:08:38;13.52;;;5.68;;
63434;SDS011;68814;50.872;5.306;2023-09-07T20:11:05;6.55;;;5.28;;
63434;SDS011;68814;50.872;5.306;2023-09-07T20:13:32;8.93;;;5.53;;
63434;SDS011;68814;50.872;5.306;2023-09-07T20:15:57;9.80;;;5.65;;
63434;SDS011;68814;50.872;5.306;2023-09-07T20:18:23;9.70;;;5.97;;
63434;SDS011;68814;50.872;5.306;2023-09-07T20:20:49;10.77;;;5.38;;
63434;SDS011;68814;50.872;5.306;2023-09-07T20:23:15;9.90;;;5.50;;
63434;SDS011;68814;50.872;5.306;2023-09-07T20:25:43;7.68;;;5.25;;
63434;SDS011;68814;50.872;5.306;2023-09-07T20:28:09;7.28;;;5.68;;
63434;SDS011;68814;50.872;5.306;2023-09-07T20:30:34;9.23;;;5.70;;
63434;SDS011;68814;50.872;5.306;2023-09-07T20:33:00;8.35;;;5.68;;
63434;SDS011;68814;50.872;5.306;2023-09-07T20:35:26;8.38;;;5.40;;
63434;SDS011;68814;50.872;5.306;2023-09-07T20:38:02;10.10;;;5.65;;
63434;SDS011;68814;50.872;5.306;2023-09-07T20:40:31;11.63;;;5.93;;
63434;SDS011;68814;50.872;5.306;2023-09-07T20:42:57;7.53;;;5.72;;
63434;SDS011;68814;50.872;5.306;2023-09-07T20:45:23;8.52;;;5.43;;
63434;SDS011;68814;50.872;5.306;2023-09-07T20:47:50;10.38;;;6.22;;
63434;SDS011;68814;50.872;5.306;2023-09-07T20:50:16;8.27;;;5.65;;
63434;SDS011;68814;50.872;5.306;2023-09-07T20:52:42;9.15;;;5.97;;
63434;SDS011;68814;50.872;5.306;2023-09-07T20:55:10;9.27;;;6.30;;
63434;SDS011;68814;50.872;5.306;2023-09-07T20:57:37;9.35;;;6.20;;
63434;SDS011;68814;50.872;5.306;2023-09-07T21:00:09;11.30;;;6.57;;
63434;SDS011;68814;50.872;5.306;2023-09-07T21:02:38;7.88;;;6.05;;
63434;SDS011;68814;50.872;5.306;2023-09-07T21:05:06;8.57;;;6.57;;
63434;SDS011;68814;50.872;5.306;2023-09-07T21:10:04;8.52;;;6.25;;
63434;SDS011;68814;50.872;5.306;2023-09-07T21:12:30;9.85;;;6.57;;
63434;SDS011;68814;50.872;5.306;2023-09-07T21:14:55;9.75;;;6.18;;
63434;SDS011;68814;50.872;5.306;2023-09-07T21:17:21;10.77;;;6.90;;
63434;SDS011;68814;50.872;5.306;2023-09-07T21:19:49;9.60;;;6.10;;
63434;SDS011;68814;50.872;5.306;2023-09-07T21:22:15;10.15;;;5.97;;
63434;SDS011;68814;50.872;5.306;2023-09-07T21:24:41;9.43;;;7.10;;
63434;SDS011;68814;50.872;5.306;2023-09-07T21:27:06;8.80;;;6.38;;
63434;SDS011;68814;50.872;5.306;2023-09-07T21:29:35;10.68;;;6.10;;
63434;SDS011;68814;50.872;5.306;2023-09-07T21:32:01;9.68;;;6.50;;
63434;SDS011;68814;50.872;5.306;2023-09-07T21:34:29;7.88;;;6.55;;
63434;SDS011;68814;50.872;5.306;2023-09-07T21:36:55;9.30;;;6.68;;
63434;SDS011;68814;50.872;5.306;2023-09-07T21:39:21;10.75;;;7.10;;
63434;SDS011;68814;50.872;5.306;2023-09-07T21:41:51;12.18;;;7.43;;
63434;SDS011;68814;50.872;5.306;2023-09-07T21:44:18;12.85;;;7.97;;
63434;SDS011;68814;50.872;5.306;2023-09-07T21:46:48;9.20;;;7.47;;
63434;SDS011;68814;50.872;5.306;2023-09-07T21:49:17;8.55;;;7.22;;
63434;SDS011;68814;50.872;5.306;2023-09-07T21:51:47;9.75;;;7.95;;
63434;SDS011;68814;50.872;5.306;2023-09-07T21:54:13;9.95;;;8.35;;
63434;SDS011;68814;50.872;5.306;2023-09-07T21:56:43;9.07;;;7.72;;
63434;SDS011;68814;50.872;5.306;2023-09-07T21:59:09;12.77;;;7.32;;
63434;SDS011;68814;50.872;5.306;2023-09-07T22:01:37;12.05;;;7.72;;
63434;SDS011;68814;50.872;5.306;2023-09-07T22:04:03;12.02;;;7.13;;
63434;SDS011;68814;50.872;5.306;2023-09-07T22:06:29;10.50;;;8.02;;
63434;SDS011;68814;50.872;5.306;2023-09-07T22:08:54;11.13;;;7.43;;
63434;SDS011;68814;50.872;5.306;2023-09-07T22:11:20;9.00;;;6.82;;
63434;SDS011;68814;50.872;5.306;2023-09-07T22:13:46;13.35;;;7.40;;
63434;SDS011;68814;50.872;5.306;2023-09-07T22:16:11;8.55;;;7.28;;
63434;SDS011;68814;50.872;5.306;2023-09-07T22:18:37;11.75;;;7.30;;
63434;SDS011;68814;50.872;5.306;2023-09-07T22:21:03;9.13;;;7.40;;
63434;SDS011;68814;50.872;5.306;2023-09-07T22:23:32;10.90;;;8.27;;
63434;SDS011;68814;50.872;5.306;2023-09-07T22:25:58;10.20;;;7.18;;
63434;SDS011;68814;50.872;5.306;2023-09-07T22:28:24;10.35;;;7.57;;
63434;SDS011;68814;50.872;5.306;2023-09-07T22:30:59;12.13;;;7.35;;
63434;SDS011;68814;50.872;5.306;2023-09-07T22:33:25;11.23;;;7.18;;
63434;SDS011;68814;50.872;5.306;2023-09-07T22:46:32;9.18;;;6.47;;
63434;SDS011;68814;50.872;5.306;2023-09-07T22:49:01;10.93;;;7.10;;
63434;SDS011;68814;50.872;5.306;2023-09-07T22:51:27;9.20;;;6.95;;
63434;SDS011;68814;50.872;5.306;2023-09-07T22:53:56;11.35;;;7.35;;
63434;SDS011;68814;50.872;5.306;2023-09-07T22:56:22;14.40;;;7.18;;
63434;SDS011;68814;50.872;5.306;2023-09-07T22:58:50;13.93;;;8.00;;
63434;SDS011;68814;50.872;5.306;2023-09-07T23:01:18;10.75;;;7.03;;
63434;SDS011;68814;50.872;5.306;2023-09-07T23:03:44;7.63;;;6.85;;
63434;SDS011;68814;50.872;5.306;2023-09-07T23:06:10;8.05;;;7.10;;
63434;SDS011;68814;50.872;5.306;2023-09-07T23:08:36;13.40;;;8.02;;
63434;SDS011;68814;50.872;5.306;2023-09-07T23:11:02;16.30;;;7.35;;
63434;SDS011;68814;50.872;5.306;2023-09-07T23:13:34;13.15;;;7.47;;
63434;SDS011;68814;50.872;5.306;2023-09-07T23:16:00;12.02;;;7.93;;
63434;SDS011;68814;50.872;5.306;2023-09-07T23:18:27;9.98;;;7.00;;
63434;SDS011;68814;50.872;5.306;2023-09-07T23:20:56;10.25;;;7.72;;
63434;SDS011;68814;50.872;5.306;2023-09-07T23:23:22;11.57;;;7.45;;
63434;SDS011;68814;50.872;5.306;2023-09-07T23:25:50;9.10;;;6.95;;
63434;SDS011;68814;50.872;5.306;2023-09-07T23:28:19;10.57;;;7.10;;
63434;SDS011;68814;50.872;5.306;2023-09-07T23:30:47;12.32;;;7.20;;
63434;SDS011;68814;50.872;5.306;2023-09-07T23:33:14;16.10;;;7.70;;
63434;SDS011;68814;50.872;5.306;2023-09-07T23:35:39;13.57;;;7.28;;
63434;SDS011;68814;50.872;5.306;2023-09-07T23:38:08;13.93;;;7.07;;
63434;SDS011;68814;50.872;5.306;2023-09-07T23:40:34;10.13;;;7.55;;
63434;SDS011;68814;50.872;5.306;2023-09-07T23:42:59;10.27;;;7.18;;
63434;SDS011;68814;50.872;5.306;2023-09-07T23:45:25;9.90;;;7.50;;
63434;SDS011;68814;50.872;5.306;2023-09-07T23:47:51;10.07;;;6.65;;
63434;SDS011;68814;50.872;5.306;2023-09-07T23:50:16;9.57;;;7.93;;
63434;SDS011;68814;50.872;5.306;2023-09-07T23:52:42;9.00;;;8.00;;
63434;SDS011;68814;50.872;5.306;2023-09-07T23:55:10;11.75;;;7.43;;
63434;SDS011;68814;50.872;5.306;2023-09-07T23:57:38;8.02;;;6.85;;
